Time;durP1;ratioP1;P1;durP2;ratioP2;P2;SDS_P1;SDS_P2;PMS_P1;PMS_P2;Temp;Humidity;BMP_temperature;BMP_pressure;BME280_temperature;BME280_humidity;BME280_pressure;Samples;Min_cycle;Max_cycle;Signal;HPM_P1;HPM_P2
2022/05/17 00:00:07;;;;;;;2.17;2.00;;;21.50;53.40;;;;;;4974724;28;20284;-71
2022/05/17 00:02:38;;;;;;;2.28;2.08;;;21.50;53.40;;;;;;4975900;28;20717;-71
2022/05/17 00:05:06;;;;;;;2.30;2.10;;;21.50;53.50;;;;;;4974680;28;20217;-71
2022/05/17 00:07:36;;;;;;;2.83;1.95;;;21.40;53.40;;;;;;4974720;28;20222;-71
2022/05/17 00:10:03;;;;;;;2.42;2.08;;;21.50;53.50;;;;;;4974819;28;20197;-70
2022/05/17 00:12:30;;;;;;;3.63;1.73;;;21.40;53.40;;;;;;4974549;28;20257;-71
2022/05/17 00:14:57;;;;;;;2.85;2.05;;;21.50;54.10;;;;;;4974813;28;20221;-70
2022/05/17 00:17:26;;;;;;;1.95;1.80;;;21.40;53.40;;;;;;4974238;28;20210;-71
2022/05/17 00:19:53;;;;;;;2.95;2.13;;;21.40;53.50;;;;;;4974274;28;20581;-71
2022/05/17 00:22:20;;;;;;;3.25;2.00;;;21.40;53.40;;;;;;4974421;28;20261;-70
2022/05/17 00:24:49;;;;;;;1.95;1.83;;;21.40;53.50;;;;;;4974349;28;20206;-71
2022/05/17 00:27:15;;;;;;;2.30;2.10;;;21.40;53.50;;;;;;4974261;28;20225;-71
2022/05/17 00:29:42;;;;;;;2.10;1.95;;;21.30;53.50;;;;;;4975083;28;20569;-71
2022/05/17 00:32:10;;;;;;;2.40;2.20;;;21.40;53.50;;;;;;4974194;28;20194;-71
2022/05/17 00:34:39;;;;;;;3.33;1.95;;;21.30;53.50;;;;;;4978720;28;20209;-70
2022/05/17 00:37:06;;;;;;;2.20;2.00;;;21.30;54.10;;;;;;4978501;28;20722;-71
2022/05/17 00:39:33;;;;;;;1.83;1.70;;;21.30;53.50;;;;;;4973803;28;20646;-72
2022/05/17 00:42:00;;;;;;;3.10;2.00;;;21.30;53.50;;;;;;4975388;28;20253;-71
2022/05/17 00:44:45;;;;;;;2.70;2.03;;;21.30;53.60;;;;;;4974256;28;20301;-71
2022/05/17 00:47:15;;;;;;;3.20;1.80;;;21.30;53.60;;;;;;4975338;28;20543;-71
2022/05/17 00:49:44;;;;;;;2.35;2.15;;;21.30;53.70;;;;;;4974004;28;20288;-71
2022/05/17 00:52:13;;;;;;;2.65;2.03;;;21.20;54.20;;;;;;4974457;28;20202;-71
2022/05/17 00:54:40;;;;;;;2.25;2.05;;;21.20;53.60;;;;;;4974678;28;20242;-71
2022/05/17 00:57:10;;;;;;;2.28;2.15;;;21.20;53.60;;;;;;4976292;28;20198;-71
2022/05/17 00:59:37;;;;;;;3.78;1.90;;;21.20;53.60;;;;;;4977051;28;20190;-71
2022/05/17 01:02:05;;;;;;;2.80;1.98;;;21.20;53.60;;;;;;4974126;28;20194;-71
2022/05/17 01:04:32;;;;;;;2.30;2.10;;;21.20;53.50;;;;;;4974178;28;20198;-71
2022/05/17 01:07:02;;;;;;;2.05;1.95;;;21.20;53.60;;;;;;4974354;28;20226;-71
2022/05/17 01:09:30;;;;;;;2.35;2.15;;;21.20;53.50;;;;;;4976004;28;20650;-71
2022/05/17 01:11:57;;;;;;;2.40;2.20;;;21.20;53.50;;;;;;4977367;28;20197;-71
2022/05/17 01:17:08;;;;;;;2.08;1.92;;;21.20;53.60;;;;;;4975501;28;20232;-72
2022/05/17 01:19:36;;;;;;;2.08;1.88;;;21.10;53.50;;;;;;4977485;28;20202;-72
2022/05/17 01:22:05;;;;;;;2.30;2.10;;;21.10;53.50;;;;;;4974054;28;20638;-71
2022/05/17 01:24:33;;;;;;;2.50;2.00;;;21.10;53.60;;;;;;4975330;28;20186;-71
2022/05/17 01:27:02;;;;;;;3.47;2.40;;;21.10;53.60;;;;;;4974934;28;20214;-71
2022/05/17 01:29:30;;;;;;;2.35;2.15;;;21.10;53.40;;;;;;4973820;28;20217;-71
2022/05/17 01:31:56;;;;;;;3.05;1.80;;;21.10;53.60;;;;;;4972834;28;20702;-71
2022/05/17 01:34:24;;;;;;;2.28;1.95;;;21.10;53.50;;;;;;4973448;28;20202;-71
2022/05/17 01:36:50;;;;;;;2.15;2.00;;;21.10;53.60;;;;;;4973383;28;20268;-71
2022/05/17 01:39:19;;;;;;;2.60;1.83;;;21.10;53.60;;;;;;4973114;28;20702;-71
2022/05/17 01:41:46;;;;;;;2.00;1.80;;;21.10;53.60;;;;;;4973347;28;20198;-71
2022/05/17 01:44:13;;;;;;;1.95;1.85;;;21.00;53.50;;;;;;4973252;28;20294;-71
2022/05/17 01:46:40;;;;;;;3.90;2.03;;;21.00;53.50;;;;;;4973479;28;20229;-71
2022/05/17 01:49:08;;;;;;;2.03;1.90;;;21.00;53.50;;;;;;4974822;28;20292;-71
2022/05/17 01:51:35;;;;;;;2.38;2.03;;;21.00;53.50;;;;;;4975139;28;20205;-71
2022/05/17 01:54:02;;;;;;;2.20;2.00;;;21.00;53.60;;;;;;4978336;28;20190;-71
2022/05/17 01:56:30;;;;;;;2.10;1.90;;;21.00;53.60;;;;;;4977085;28;20186;-71
2022/05/17 01:58:57;;;;;;;2.30;2.10;;;21.00;53.50;;;;;;4976975;28;20225;-71
2022/05/17 02:01:24;;;;;;;2.22;1.90;;;21.00;53.50;;;;;;4976975;28;20216;-71
2022/05/17 02:03:51;;;;;;;1.95;1.85;;;21.00;53.40;;;;;;4976955;28;20678;-71
2022/05/17 02:06:19;;;;;;;2.83;2.20;;;20.90;53.50;;;;;;4976600;28;20226;-71
2022/05/17 02:08:46;;;;;;;2.17;1.98;;;21.00;53.60;;;;;;4978052;28;20209;-71
2022/05/17 02:11:13;;;;;;;2.03;1.83;;;20.90;53.40;;;;;;4977884;28;20537;-71
2022/05/17 02:13:41;;;;;;;2.30;2.10;;;20.90;53.40;;;;;;5265354;23;20701;-66
2022/05/17 02:16:10;;;;;;;3.17;2.00;;;20.90;53.40;;;;;;4976589;28;20194;-68
2022/05/17 02:18:38;;;;;;;3.83;1.95;;;20.90;53.50;;;;;;4977802;28;20252;-68
2022/05/17 02:21:05;;;;;;;2.08;1.95;;;20.90;53.50;;;;;;4978063;28;20195;-68
2022/05/17 02:23:32;;;;;;;2.85;2.10;;;20.90;53.50;;;;;;4971908;28;20224;-68
2022/05/17 02:25:59;;;;;;;2.30;2.10;;;20.90;53.50;;;;;;4957071;28;20223;-68
2022/05/17 02:28:26;;;;;;;2.95;1.98;;;20.90;53.40;;;;;;4956900;28;20203;-68
2022/05/17 02:30:55;;;;;;;2.17;2.08;;;20.80;54.00;;;;;;4956765;28;20293;-68
2022/05/17 02:33:22;;;;;;;2.42;1.90;;;20.80;53.40;;;;;;4957916;28;20207;-68
2022/05/17 02:35:49;;;;;;;2.47;1.98;;;20.80;53.40;;;;;;4958094;28;20258;-68
2022/05/17 02:38:16;;;;;;;2.20;2.00;;;20.80;53.40;;;;;;4956827;28;20207;-68
2022/05/17 02:40:44;;;;;;;2.20;2.00;;;20.80;53.40;;;;;;4956691;28;20203;-68
2022/05/17 02:43:12;;;;;;;2.15;1.95;;;20.80;53.60;;;;;;4957807;28;20195;-68
2022/05/17 02:45:39;;;;;;;2.75;2.00;;;20.80;53.60;;;;;;4956556;28;20202;-68
2022/05/17 02:48:08;;;;;;;3.45;2.10;;;20.80;53.60;;;;;;4956656;28;20617;-68
2022/05/17 02:50:36;;;;;;;2.20;2.00;;;20.80;53.70;;;;;;4956561;28;20250;-68
2022/05/17 02:53:02;;;;;;;2.05;1.95;;;20.80;53.60;;;;;;4956524;28;20199;-68
2022/05/17 02:55:30;;;;;;;2.33;2.10;;;20.70;53.50;;;;;;4957699;28;20202;-69
2022/05/17 02:57:57;;;;;;;3.03;2.10;;;20.70;53.50;;;;;;4956619;28;20194;-68
2022/05/17 03:00:25;;;;;;;2.13;2.03;;;20.70;53.50;;;;;;4956589;29;20203;-68
2022/05/17 03:02:52;;;;;;;2.13;1.80;;;20.70;53.50;;;;;;4955921;28;20663;-68
2022/05/17 03:05:20;;;;;;;2.45;2.25;;;20.70;53.40;;;;;;4957640;28;20213;-68
2022/05/17 03:07:48;;;;;;;2.40;2.20;;;20.70;53.50;;;;;;4957517;28;20221;-68
2022/05/17 03:10:15;;;;;;;2.40;1.90;;;20.70;53.50;;;;;;4957573;28;20226;-68
2022/05/17 03:12:42;;;;;;;2.00;1.90;;;20.70;53.40;;;;;;4957096;28;20206;-68
2022/05/17 03:15:10;;;;;;;2.25;2.00;;;20.70;53.40;;;;;;4956627;28;20281;-68
2022/05/17 03:17:37;;;;;;;2.40;2.20;;;20.70;53.40;;;;;;4956605;29;20202;-68
2022/05/17 03:20:06;;;;;;;2.15;2.00;;;20.70;53.60;;;;;;4956764;28;20250;-68
2022/05/17 03:22:34;;;;;;;2.30;2.10;;;20.70;53.70;;;;;;4957435;28;20242;-68
2022/05/17 03:25:01;;;;;;;2.03;1.88;;;20.70;53.70;;;;;;4957116;28;20290;-68
2022/05/17 03:27:30;;;;;;;2.35;2.05;;;20.80;53.70;;;;;;4955929;28;20215;-68
2022/05/17 03:29:58;;;;;;;4.13;1.90;;;20.80;53.40;;;;;;4955920;28;20207;-68
2022/05/17 03:32:25;;;;;;;2.25;2.00;;;20.90;53.50;;;;;;4955872;28;20293;-68
2022/05/17 03:34:52;;;;;;;2.30;2.10;;;20.90;53.40;;;;;;4957089;28;20225;-68
2022/05/17 03:37:19;;;;;;;2.45;2.25;;;20.90;53.20;;;;;;4955750;29;20206;-68
2022/05/17 03:39:48;;;;;;;2.40;2.10;;;20.90;53.10;;;;;;4955727;28;20266;-68
2022/05/17 03:42:15;;;;;;;2.65;2.17;;;21.00;53.10;;;;;;4955614;29;20206;-68
2022/05/17 03:44:44;;;;;;;2.30;2.10;;;21.00;53.00;;;;;;4956865;28;20665;-68
2022/05/17 03:47:12;;;;;;;2.53;2.20;;;21.00;52.90;;;;;;4957097;29;20270;-68
2022/05/17 03:49:41;;;;;;;2.28;2.08;;;21.10;52.90;;;;;;4955358;28;20308;-68
2022/05/17 03:52:09;;;;;;;2.17;1.90;;;21.00;52.80;;;;;;4956661;28;20191;-68
2022/05/17 03:54:36;;;;;;;2.42;2.00;;;21.10;52.80;;;;;;4955326;28;20222;-68
2022/05/17 03:57:06;;;;;;;2.67;2.15;;;21.10;52.80;;;;;;4955892;28;20195;-68
2022/05/17 03:59:34;;;;;;;2.75;1.95;;;21.10;52.70;;;;;;4955558;29;20187;-68
2022/05/17 04:02:01;;;;;;;2.33;2.00;;;21.10;52.70;;;;;;4955345;28;20245;-68
2022/05/17 04:04:29;;;;;;;2.25;1.80;;;21.10;52.70;;;;;;4956393;28;20217;-68
2022/05/17 04:06:56;;;;;;;2.08;1.90;;;21.10;52.50;;;;;;4955096;29;20215;-68
2022/05/17 04:09:23;;;;;;;2.20;2.00;;;21.10;52.70;;;;;;4955195;28;20214;-68
2022/05/17 04:11:51;;;;;;;2.40;1.90;;;21.00;52.60;;;;;;4955467;28;20222;-68
2022/05/17 04:14:20;;;;;;;2.10;1.90;;;21.00;52.60;;;;;;4954390;28;20237;-68
2022/05/17 04:16:48;;;;;;;2.30;2.10;;;21.00;52.60;;;;;;4957943;28;20202;-67
2022/05/17 04:19:15;;;;;;;2.35;2.15;;;21.00;53.20;;;;;;4959117;28;20199;-68
2022/05/17 04:21:47;;;;;;;3.72;2.22;;;21.00;52.80;;;;;;4956146;29;20588;-68
2022/05/17 04:24:15;;;;;;;2.35;2.15;;;21.00;52.70;;;;;;4956402;28;20210;-68
2022/05/17 04:26:42;;;;;;;2.28;2.08;;;21.00;52.80;;;;;;4954900;28;20321;-68
2022/05/17 04:29:09;;;;;;;2.00;1.90;;;21.00;52.80;;;;;;4954902;28;20698;-68
2022/05/17 04:31:37;;;;;;;2.28;2.10;;;21.00;52.70;;;;;;4955313;29;20202;-68
2022/05/17 04:34:04;;;;;;;2.28;2.00;;;21.00;52.70;;;;;;4954814;28;20226;-68
2022/05/17 04:36:33;;;;;;;2.33;2.13;;;21.00;52.80;;;;;;4954732;29;20199;-68
2022/05/17 04:39:00;;;;;;;2.40;2.20;;;21.00;52.80;;;;;;4956126;28;20229;-68
2022/05/17 04:41:27;;;;;;;2.00;1.90;;;21.00;52.90;;;;;;4954572;28;20198;-68
2022/05/17 04:43:54;;;;;;;2.35;2.15;;;21.10;53.10;;;;;;4955769;28;20337;-68
2022/05/17 04:46:22;;;;;;;2.65;2.30;;;21.20;53.20;;;;;;4954620;29;20234;-68
2022/05/17 04:48:51;;;;;;;2.47;2.17;;;21.30;52.90;;;;;;4954853;28;20194;-68
2022/05/17 04:51:18;;;;;;;2.67;2.00;;;21.50;52.50;;;;;;4956261;29;20197;-68
2022/05/17 04:53:45;;;;;;;2.33;2.13;;;21.70;52.30;;;;;;4954611;28;20218;-68
2022/05/17 04:56:14;;;;;;;2.28;2.03;;;21.90;51.90;;;;;;4959126;28;20199;-68
2022/05/17 04:58:43;;;;;;;2.15;1.95;;;22.10;51.60;;;;;;4955592;28;20199;-68
2022/05/17 05:01:10;;;;;;;2.47;2.28;;;22.20;51.30;;;;;;4956182;28;20617;-68
2022/05/17 05:03:38;;;;;;;2.22;2.05;;;22.30;51.00;;;;;;4955897;28;20210;-68
2022/05/17 05:06:06;;;;;;;2.33;2.08;;;22.50;50.90;;;;;;4954562;28;20198;-67
2022/05/17 05:08:33;;;;;;;2.95;2.42;;;22.60;50.60;;;;;;4955996;28;20297;-68
2022/05/17 05:11:00;;;;;;;2.83;2.30;;;22.70;50.40;;;;;;4955666;29;20195;-68
2022/05/17 05:13:27;;;;;;;2.35;2.15;;;22.90;50.30;;;;;;4954280;28;20277;-68
2022/05/17 05:15:55;;;;;;;2.50;2.30;;;23.00;50.00;;;;;;4954355;28;20203;-68
2022/05/17 05:18:22;;;;;;;2.30;2.10;;;23.10;49.80;;;;;;4954401;28;20669;-68
2022/05/17 05:20:49;;;;;;;2.50;2.00;;;23.30;49.60;;;;;;4954569;28;20301;-68
2022/05/17 05:23:18;;;;;;;2.50;2.30;;;23.40;49.40;;;;;;4955100;28;20254;-68
2022/05/17 05:25:45;;;;;;;2.25;2.10;;;23.50;49.20;;;;;;4954710;28;20671;-68
2022/05/17 05:28:12;;;;;;;2.67;2.10;;;23.60;48.80;;;;;;4954662;28;20307;-68
2022/05/17 05:30:41;;;;;;;2.42;2.22;;;23.70;48.80;;;;;;4954625;29;20619;-68
2022/05/17 05:33:08;;;;;;;2.60;2.13;;;23.80;48.70;;;;;;4954341;28;20675;-68
2022/05/17 05:35:35;;;;;;;3.38;2.10;;;23.90;48.30;;;;;;4954114;29;20590;-67
2022/05/17 05:38:03;;;;;;;2.53;1.88;;;24.00;48.10;;;;;;4954307;28;20199;-68
2022/05/17 05:40:32;;;;;;;2.58;2.20;;;24.10;47.90;;;;;;4954922;28;20538;-68
2022/05/17 05:42:58;;;;;;;2.50;2.30;;;24.20;47.80;;;;;;4955273;28;20199;-68
2022/05/17 05:45:25;;;;;;;2.67;2.05;;;24.30;47.70;;;;;;4954125;29;20649;-68
2022/05/17 05:47:53;;;;;;;2.97;2.45;;;24.40;47.40;;;;;;4955377;28;20218;-68
2022/05/17 05:50:21;;;;;;;2.35;2.15;;;24.50;47.90;;;;;;4954478;28;20202;-69
2022/05/17 05:52:49;;;;;;;1.90;1.80;;;24.60;47.20;;;;;;4956006;28;20194;-68
2022/05/17 05:55:18;;;;;;;2.40;2.20;;;24.70;47.00;;;;;;4955137;28;20563;-68
2022/05/17 05:57:47;;;;;;;2.40;1.92;;;24.70;47.40;;;;;;4955476;28;20557;-68
2022/05/17 06:00:15;;;;;;;2.38;2.17;;;24.80;46.60;;;;;;4955402;28;20199;-68
2022/05/17 06:02:42;;;;;;;2.15;1.95;;;24.90;46.40;;;;;;4953656;28;20206;-68
2022/05/17 06:05:10;;;;;;;3.33;2.25;;;25.00;46.20;;;;;;4953606;28;20223;-68
2022/05/17 06:07:37;;;;;;;2.15;1.83;;;25.10;46.00;;;;;;4954939;28;20207;-68
2022/05/17 06:10:04;;;;;;;2.10;1.95;;;25.10;45.80;;;;;;4955445;28;20222;-68
2022/05/17 06:12:31;;;;;;;3.75;2.10;;;25.20;45.50;;;;;;4953793;28;20205;-68
2022/05/17 06:15:00;;;;;;;2.53;2.30;;;25.30;45.60;;;;;;4954692;28;20226;-68
2022/05/17 06:17:28;;;;;;;2.80;2.47;;;25.30;45.60;;;;;;4954995;28;20679;-68
2022/05/17 06:19:55;;;;;;;2.00;1.77;;;25.30;45.40;;;;;;4954716;28;20238;-68
2022/05/17 06:22:22;;;;;;;2.40;1.80;;;25.40;45.50;;;;;;4953562;28;20197;-68
2022/05/17 06:24:49;;;;;;;2.63;2.00;;;25.40;45.30;;;;;;4953718;28;20223;-68
2022/05/17 06:27:16;;;;;;;2.10;1.90;;;25.50;45.20;;;;;;4954765;28;20246;-68
2022/05/17 06:29:43;;;;;;;1.77;1.67;;;25.60;45.10;;;;;;4954486;28;20201;-69
2022/05/17 06:32:12;;;;;;;2.20;2.05;;;25.60;44.90;;;;;;4953572;28;20249;-68
2022/05/17 06:34:39;;;;;;;1.90;1.80;;;25.60;44.60;;;;;;4953550;28;20242;-68
2022/05/17 06:37:07;;;;;;;2.15;2.00;;;25.70;44.50;;;;;;4954597;28;20207;-67
2022/05/17 06:39:34;;;;;;;2.53;1.92;;;25.70;44.50;;;;;;4958186;28;20191;-68
2022/05/17 06:42:01;;;;;;;2.80;1.88;;;25.80;44.50;;;;;;4957197;29;20203;-68
2022/05/17 06:44:34;;;;;;;2.00;1.90;;;25.90;44.30;;;;;;4958553;28;20214;-68
2022/05/17 06:47:01;;;;;;;2.95;1.98;;;25.90;44.20;;;;;;4956707;28;20270;-68
2022/05/17 06:49:30;;;;;;;2.55;1.83;;;25.90;44.10;;;;;;4957954;28;20656;-68
2022/05/17 06:52:00;;;;;;;1.80;1.70;;;26.00;44.00;;;;;;4957853;28;20274;-69
2022/05/17 06:54:28;;;;;;;2.17;2.00;;;26.10;43.90;;;;;;4956526;28;20273;-68
2022/05/17 06:56:55;;;;;;;2.30;1.67;;;26.10;43.70;;;;;;4956728;28;20199;-67
2022/05/17 06:59:22;;;;;;;2.00;1.80;;;26.20;43.60;;;;;;4956619;28;20593;-68
2022/05/17 07:01:50;;;;;;;1.90;1.80;;;26.20;43.50;;;;;;4956376;28;20230;-68
2022/05/17 07:04:16;;;;;;;2.17;1.80;;;26.30;43.40;;;;;;4957511;28;20588;-68
2022/05/17 07:06:45;;;;;;;1.75;1.65;;;26.40;43.20;;;;;;4956326;28;20202;-68
2022/05/17 07:09:12;;;;;;;2.17;1.83;;;26.40;43.10;;;;;;4957769;28;20242;-68
2022/05/17 07:14:23;;;;;;;2.00;1.67;;;26.50;42.90;;;;;;4956854;28;20305;-68
2022/05/17 07:16:51;;;;;;;1.67;1.58;;;26.50;42.90;;;;;;4956526;28;20202;-68
2022/05/17 07:19:18;;;;;;;1.90;1.80;;;26.50;42.90;;;;;;4956577;28;20191;-68
2022/05/17 07:21:46;;;;;;;2.08;1.88;;;26.50;42.80;;;;;;4955439;28;20214;-67
2022/05/17 07:24:13;;;;;;;2.35;1.83;;;26.50;42.80;;;;;;4955104;28;20291;-67
2022/05/17 07:26:40;;;;;;;1.95;1.70;;;26.60;42.70;;;;;;4954967;28;20261;-67
2022/05/17 07:29:10;;;;;;;2.10;1.90;;;26.60;42.70;;;;;;4954904;28;20222;-67
2022/05/17 07:31:37;;;;;;;1.70;1.60;;;26.60;42.60;;;;;;4954860;28;20213;-67
2022/05/17 07:34:04;;;;;;;2.00;1.88;;;26.70;42.40;;;;;;4954784;28;20311;-67
2022/05/17 07:36:32;;;;;;;1.85;1.75;;;26.80;42.40;;;;;;4954905;28;20622;-68
2022/05/17 07:39:00;;;;;;;1.70;1.60;;;26.80;42.30;;;;;;4954809;29;20214;-68
2022/05/17 07:41:27;;;;;;;1.90;1.80;;;26.90;42.20;;;;;;4954878;28;20214;-68
2022/05/17 07:43:54;;;;;;;2.05;1.67;;;26.90;42.00;;;;;;4956127;28;20217;-68
2022/05/17 07:46:21;;;;;;;1.90;1.80;;;27.00;41.90;;;;;;4954713;28;20285;-68
2022/05/17 07:48:48;;;;;;;1.90;1.80;;;27.00;41.90;;;;;;4954634;28;20304;-68
2022/05/17 07:51:15;;;;;;;1.90;1.70;;;27.00;41.90;;;;;;4954692;29;20198;-68
2022/05/17 07:53:42;;;;;;;1.70;1.60;;;27.10;41.90;;;;;;4954770;28;20250;-68
2022/05/17 07:56:11;;;;;;;2.42;2.10;;;27.10;41.80;;;;;;4955742;29;20218;-68
2022/05/17 07:58:38;;;;;;;2.17;1.98;;;27.10;41.70;;;;;;4954595;28;20201;-68
2022/05/17 08:01:05;;;;;;;1.90;1.80;;;27.20;41.70;;;;;;4954612;28;20232;-68
2022/05/17 08:03:32;;;;;;;1.80;1.70;;;27.20;41.60;;;;;;4954409;28;20223;-68
2022/05/17 08:06:00;;;;;;;2.08;1.77;;;27.20;41.60;;;;;;4955683;29;20194;-68
2022/05/17 08:08:27;;;;;;;1.98;1.80;;;27.20;41.60;;;;;;4955809;28;20305;-68
2022/05/17 08:10:54;;;;;;;2.00;1.80;;;27.20;41.60;;;;;;4956031;28;20201;-69
2022/05/17 08:13:23;;;;;;;1.80;1.70;;;27.20;41.60;;;;;;4922179;28;1067794;-69
2022/05/17 08:15:50;;;;;;;1.80;1.70;;;27.20;41.60;;;;;;4959830;29;20253;-68
2022/05/17 08:18:17;;;;;;;1.80;1.70;;;27.20;41.50;;;;;;4957674;28;20195;-68
2022/05/17 08:20:45;;;;;;;1.88;1.77;;;27.30;41.50;;;;;;4955369;28;20194;-68
2022/05/17 08:23:13;;;;;;;1.95;1.77;;;27.30;41.50;;;;;;4956382;28;20190;-68
2022/05/17 08:28:26;;;;;;;1.80;1.70;;;27.30;41.30;;;;;;4955741;28;20213;-69
2022/05/17 08:30:53;;;;;;;1.70;1.60;;;27.40;41.30;;;;;;4955322;28;20257;-68
2022/05/17 08:33:20;;;;;;;2.58;1.80;;;27.40;41.20;;;;;;4956245;28;20214;-69
2022/05/17 08:35:50;;;;;;;1.75;1.65;;;27.40;41.10;;;;;;4954941;28;20210;-68
2022/05/17 08:38:19;;;;;;;1.55;1.38;;;27.40;41.10;;;;;;4939052;29;20198;-68
2022/05/17 08:41:14;;;;;;;2.00;1.80;;;27.40;41.10;;;;;;4955062;29;20206;-68
2022/05/17 08:43:49;;;;;;;1.70;1.60;;;27.40;41.20;;;;;;4946399;28;20218;-68
2022/05/17 08:46:32;;;;;;;1.98;1.88;;;27.30;41.20;;;;;;4954820;29;20289;-68
2022/05/17 08:49:03;;;;;;;2.10;1.90;;;27.30;41.40;;;;;;4954767;28;20226;-68
2022/05/17 08:51:36;;;;;;;1.80;1.70;;;27.30;41.60;;;;;;4955281;28;20194;-68
2022/05/17 08:54:05;;;;;;;1.63;1.52;;;27.20;41.60;;;;;;4956633;28;20218;-68
2022/05/17 08:56:32;;;;;;;1.90;1.80;;;27.20;41.60;;;;;;4961494;29;20222;-69
2022/05/17 08:59:01;;;;;;;1.80;1.70;;;27.20;41.70;;;;;;4968666;28;20195;-68
2022/05/17 09:01:32;;;;;;;1.98;1.77;;;27.20;41.80;;;;;;4955639;28;20213;-68
2022/05/17 09:04:06;;;;;;;1.90;1.80;;;27.10;41.90;;;;;;4955128;28;20257;-68
2022/05/17 09:06:37;;;;;;;1.80;1.70;;;27.10;41.90;;;;;;4955983;29;20201;-68
2022/05/17 09:09:06;;;;;;;1.80;1.70;;;27.10;42.00;;;;;;4954666;28;20218;-68
2022/05/17 09:11:36;;;;;;;1.77;1.65;;;27.00;42.00;;;;;;4954572;28;20597;-69
2022/05/17 09:14:07;;;;;;;1.80;1.70;;;27.00;42.20;;;;;;4954342;28;20737;-68
2022/05/17 09:16:36;;;;;;;1.80;1.70;;;26.90;42.20;;;;;;4954299;29;20208;-67
2022/05/17 09:19:03;;;;;;;1.77;1.67;;;26.90;42.40;;;;;;4954799;28;20683;-68
2022/05/17 09:21:32;;;;;;;1.77;1.67;;;26.90;42.40;;;;;;4955939;28;20245;-68
2022/05/17 09:24:00;;;;;;;1.90;1.80;;;26.90;42.40;;;;;;4955769;28;20214;-68
2022/05/17 09:26:27;;;;;;;1.42;1.40;;;26.80;42.40;;;;;;4955849;28;20242;-68
2022/05/17 09:28:56;;;;;;;2.10;1.80;;;26.90;42.30;;;;;;4954393;28;20309;-68
2022/05/17 09:31:31;;;;;;;1.80;1.70;;;26.80;42.30;;;;;;4954732;28;20241;-68
2022/05/17 09:33:59;;;;;;;2.10;1.90;;;26.80;42.60;;;;;;4955215;28;20229;-69
2022/05/17 09:36:31;;;;;;;1.85;1.75;;;26.70;42.70;;;;;;4955184;28;20233;-68
2022/05/17 09:38:58;;;;;;;1.70;1.60;;;26.80;42.80;;;;;;4955834;28;20234;-68
2022/05/17 09:41:26;;;;;;;2.17;2.03;;;26.80;42.80;;;;;;4954526;28;20657;-69
2022/05/17 09:43:57;;;;;;;1.60;1.50;;;26.70;42.90;;;;;;4954147;28;20218;-68
2022/05/17 09:46:32;;;;;;;1.83;1.73;;;26.80;42.90;;;;;;4954993;28;20190;-68
2022/05/17 09:54:43;;;;;;;1.80;1.70;;;26.80;42.70;;;;;;4955217;28;20206;-68
2022/05/17 09:57:12;;;;;;;2.10;1.90;;;26.80;42.70;;;;;;4955328;28;20267;-68
2022/05/17 09:59:40;;;;;;;1.70;1.60;;;26.70;42.70;;;;;;4955418;28;20691;-68
2022/05/17 10:02:40;;;;;;;1.60;1.50;;;26.70;42.70;;;;;;4953853;28;20198;-68
2022/05/17 10:05:17;;;;;;;1.90;1.80;;;26.70;42.70;;;;;;4934968;29;20643;-68
2022/05/17 10:07:44;;;;;;;1.80;1.70;;;26.70;42.80;;;;;;4954344;28;20197;-68
2022/05/17 10:10:14;;;;;;;1.80;1.70;;;26.60;42.80;;;;;;4954947;28;20221;-68
2022/05/17 10:12:42;;;;;;;1.77;1.67;;;26.60;42.80;;;;;;4957188;28;20194;-68
2022/05/17 10:15:11;;;;;;;1.80;1.70;;;26.60;42.80;;;;;;4958752;28;20232;-68
2022/05/17 10:17:43;;;;;;;1.98;1.70;;;26.60;42.90;;;;;;4957467;29;20224;-68
2022/05/17 10:20:12;;;;;;;1.70;1.60;;;26.60;42.90;;;;;;4958429;28;20175;-68
2022/05/17 10:22:41;;;;;;;1.80;1.70;;;26.60;42.90;;;;;;4957263;28;20667;-68
2022/05/17 10:25:09;;;;;;;1.67;1.58;;;26.60;43.00;;;;;;4957233;28;20635;-68
2022/05/17 10:27:37;;;;;;;1.63;1.52;;;26.60;43.00;;;;;;4958558;28;20190;-68
2022/05/17 10:30:07;;;;;;;1.67;1.58;;;26.60;43.00;;;;;;4958536;28;20586;-68
2022/05/17 10:32:39;;;;;;;1.60;1.50;;;26.50;43.00;;;;;;4958838;28;20648;-68
2022/05/17 10:35:11;;;;;;;1.67;1.58;;;26.50;43.00;;;;;;4957087;28;20221;-68
2022/05/17 10:37:41;;;;;;;1.95;1.75;;;26.50;43.10;;;;;;4959032;28;20171;-69
2022/05/17 10:40:09;;;;;;;1.70;1.60;;;26.50;43.10;;;;;;4957475;28;20202;-68
2022/05/17 10:42:37;;;;;;;1.63;1.52;;;26.50;43.10;;;;;;4957028;28;20202;-67
2022/05/17 10:45:06;;;;;;;1.80;1.70;;;26.40;43.20;;;;;;4958042;28;20245;-68
2022/05/17 10:47:46;;;;;;;1.80;1.70;;;26.40;43.20;;;;;;4958221;28;20200;-68
2022/05/17 10:50:23;;;;;;;1.70;1.60;;;26.40;43.30;;;;;;4956735;28;20214;-68
2022/05/17 10:53:04;;;;;;;1.83;1.73;;;26.40;43.40;;;;;;4956965;28;20202;-68
2022/05/17 10:55:36;;;;;;;1.67;1.58;;;26.30;43.30;;;;;;4958344;28;20651;-69
2022/05/17 10:58:06;;;;;;;1.60;1.50;;;26.40;43.50;;;;;;4958450;28;20216;-66
2022/05/17 11:00:35;;;;;;;1.80;1.70;;;26.30;43.50;;;;;;4956968;29;20281;-68
2022/05/17 11:03:14;;;;;;;1.67;1.58;;;26.30;43.60;;;;;;4957418;28;20203;-69
2022/05/17 11:05:49;;;;;;;1.80;1.70;;;26.20;43.70;;;;;;4957558;28;20671;-68
2022/05/17 11:08:19;;;;;;;1.70;1.60;;;26.20;44.30;;;;;;4956567;28;20313;-68
2022/05/17 11:10:53;;;;;;;1.70;1.60;;;26.20;43.80;;;;;;4958196;28;20187;-69
2022/05/17 11:13:22;;;;;;;2.05;1.85;;;26.20;43.80;;;;;;4956654;28;20257;-69
2022/05/17 11:15:51;;;;;;;1.83;1.73;;;26.20;43.80;;;;;;4956590;28;20717;-69
2022/05/17 11:18:22;;;;;;;1.70;1.60;;;26.20;43.90;;;;;;4958064;28;20229;-69
2022/05/17 11:20:54;;;;;;;2.25;1.80;;;26.20;43.90;;;;;;4956836;28;20234;-68
2022/05/17 11:23:32;;;;;;;1.90;1.80;;;26.10;44.00;;;;;;4956047;28;20218;-69
2022/05/17 11:26:11;;;;;;;1.90;1.80;;;26.10;44.00;;;;;;4956639;28;20555;-68
2022/05/17 11:29:07;;;;;;;1.50;1.40;;;26.10;44.00;;;;;;4958021;28;20648;-69
2022/05/17 11:31:48;;;;;;;1.88;1.77;;;26.10;44.00;;;;;;4957685;28;20180;-69
2022/05/17 11:34:27;;;;;;;1.70;1.60;;;26.10;44.10;;;;;;4956194;28;20246;-68
2022/05/17 11:36:56;;;;;;;1.80;1.70;;;26.10;44.20;;;;;;4956298;28;20198;-68
2022/05/17 11:39:46;;;;;;;1.70;1.60;;;26.10;44.30;;;;;;4956116;28;20620;-68
2022/05/17 11:42:27;;;;;;;1.73;1.63;;;26.00;44.30;;;;;;4957482;28;20632;-67
2022/05/17 11:44:54;;;;;;;1.73;1.60;;;26.00;44.30;;;;;;4955915;28;20338;-69
2022/05/17 11:47:29;;;;;;;1.80;1.70;;;26.00;44.30;;;;;;4956103;28;20261;-68
2022/05/17 11:50:22;;;;;;;1.63;1.52;;;26.10;44.40;;;;;;4956266;28;20211;-67
2022/05/17 11:52:56;;;;;;;1.63;1.52;;;26.00;44.30;;;;;;4956250;29;20198;-68
2022/05/17 11:55:27;;;;;;;1.88;1.77;;;26.00;44.30;;;;;;4957489;28;20222;-69
2022/05/17 11:58:03;;;;;;;1.67;1.58;;;26.00;44.40;;;;;;4955819;28;20202;-67
2022/05/17 12:00:48;;;;;;;1.95;1.80;;;26.00;44.40;;;;;;4956132;28;20226;-67
2022/05/17 12:03:50;;;;;;;1.50;1.40;;;26.00;44.50;;;;;;4960036;28;20221;-69
2022/05/17 12:06:44;;;;;;;1.77;1.67;;;25.90;44.50;;;;;;4959078;28;20237;-68
2022/05/17 12:09:29;;;;;;;1.75;1.65;;;26.00;44.60;;;;;;4994771;23;20225;-62
2022/05/17 12:12:16;;;;;;;1.80;1.70;;;25.90;44.70;;;;;;4991917;28;20203;-63
2022/05/17 12:14:48;;;;;;;1.70;1.60;;;25.90;44.70;;;;;;4973936;28;20221;-63
2022/05/17 12:17:16;;;;;;;1.70;1.60;;;25.90;44.80;;;;;;4975323;28;20603;-63
2022/05/17 12:19:46;;;;;;;1.60;1.50;;;25.90;44.90;;;;;;4975781;28;20182;-65
2022/05/17 12:22:16;;;;;;;1.70;1.50;;;25.80;44.90;;;;;;4975313;28;20202;-65
2022/05/17 12:24:54;;;;;;;1.45;1.35;;;25.80;45.00;;;;;;4975235;28;20213;-66
2022/05/17 12:27:23;;;;;;;1.58;1.48;;;25.80;45.00;;;;;;4975620;28;20181;-65
2022/05/17 12:32:41;;;;;;;1.80;1.70;;;25.70;45.20;;;;;;4973861;28;20277;-65
2022/05/17 12:35:09;;;;;;;1.60;1.50;;;25.70;45.40;;;;;;4973172;28;20201;-65
2022/05/17 12:37:41;;;;;;;1.58;1.50;;;25.70;45.40;;;;;;4975323;28;20190;-65
2022/05/17 12:43:07;;;;;;;1.58;1.48;;;25.60;45.50;;;;;;4973795;28;20222;-65
2022/05/17 12:45:38;;;;;;;1.80;1.70;;;25.60;45.50;;;;;;4975272;28;20182;-65
2022/05/17 12:48:13;;;;;;;1.80;1.70;;;25.60;45.50;;;;;;4974991;28;20200;-65
2022/05/17 12:50:42;;;;;;;1.70;1.60;;;25.60;45.60;;;;;;4975179;28;20213;-65
2022/05/17 12:53:12;;;;;;;1.60;1.50;;;25.60;45.60;;;;;;4973491;28;20222;-65
2022/05/17 12:55:41;;;;;;;1.67;1.58;;;25.60;45.60;;;;;;4974861;28;20648;-65
2022/05/17 12:58:10;;;;;;;1.80;1.70;;;25.60;45.60;;;;;;4973491;28;20627;-65
2022/05/17 13:00:37;;;;;;;1.65;1.55;;;25.60;45.60;;;;;;4973515;28;20253;-65
2022/05/17 13:03:16;;;;;;;1.67;1.58;;;25.60;45.60;;;;;;4974483;28;20248;-65
2022/05/17 13:05:47;;;;;;;1.70;1.60;;;25.60;45.60;;;;;;4973488;28;20293;-65
2022/05/17 13:08:15;;;;;;;1.75;1.65;;;25.60;45.60;;;;;;4973149;28;20293;-65
2022/05/17 13:10:56;;;;;;;1.63;1.52;;;25.60;45.60;;;;;;4974929;28;20253;-65
2022/05/17 13:13:24;;;;;;;2.22;1.70;;;25.60;45.70;;;;;;4974491;28;20305;-65
2022/05/17 13:15:53;;;;;;;1.60;1.50;;;25.60;45.70;;;;;;4974677;28;20229;-63
2022/05/17 13:18:20;;;;;;;1.77;1.67;;;25.60;45.80;;;;;;4974885;28;20209;-63